Time;durP1;ratioP1;P1;durP2;ratioP2;P2;SDS_P1;SDS_P2;PMS_P1;PMS_P2;Temp;Humidity;BMP_temperature;BMP_pressure;BME280_temperature;BME280_humidity;BME280_pressure;Samples;Min_cycle;Max_cycle;Signal;HPM_P1;HPM_P2
2023/03/22 00:00:50;;;;;;;10.13;6.97;;;10.30;99.90;;;;;;4995488;28;20262;-64
2023/03/22 00:03:16;;;;;;;9.23;6.78;;;10.40;99.90;;;;;;4995564;28;20173;-64
2023/03/22 00:05:42;;;;;;;7.38;6.20;;;10.40;99.90;;;;;;4995585;28;20574;-64
2023/03/22 00:08:08;;;;;;;10.30;6.25;;;10.40;99.90;;;;;;4994121;28;20283;-64
2023/03/22 00:10:36;;;;;;;9.00;6.30;;;10.40;99.90;;;;;;4996090;28;20169;-64
2023/03/22 00:13:07;;;;;;;8.43;6.67;;;10.40;99.90;;;;;;4995698;28;20183;-64
2023/03/22 00:15:33;;;;;;;10.90;6.90;;;10.30;99.90;;;;;;4995563;28;20239;-64
2023/03/22 00:18:00;;;;;;;8.50;6.50;;;10.30;99.90;;;;;;4994944;28;20253;-64
2023/03/22 00:20:32;;;;;;;10.27;6.13;;;10.30;99.90;;;;;;4995599;28;20566;-64
2023/03/22 00:22:58;;;;;;;8.70;6.50;;;10.40;99.90;;;;;;4995575;28;20185;-64
2023/03/22 00:25:24;;;;;;;9.10;6.70;;;10.40;99.90;;;;;;4995239;28;20174;-64
2023/03/22 00:27:50;;;;;;;10.27;6.93;;;10.40;99.90;;;;;;4995251;28;20275;-64
2023/03/22 00:30:16;;;;;;;11.70;6.70;;;10.40;99.90;;;;;;4995063;28;20169;-64
2023/03/22 00:32:42;;;;;;;10.50;6.53;;;10.40;99.90;;;;;;4994926;28;20184;-64
2023/03/22 00:35:09;;;;;;;11.30;6.17;;;10.40;99.90;;;;;;4995024;28;20240;-64
2023/03/22 00:37:37;;;;;;;8.48;6.72;;;10.40;99.90;;;;;;4994879;28;20532;-64
2023/03/22 00:40:12;;;;;;;9.05;6.65;;;10.40;99.90;;;;;;4995253;28;20169;-64
2023/03/22 00:42:40;;;;;;;9.48;5.97;;;10.40;99.90;;;;;;4995567;28;20609;-64
2023/03/22 00:45:08;;;;;;;9.13;6.45;;;10.40;99.90;;;;;;4994968;28;20168;-64
2023/03/22 00:47:34;;;;;;;11.10;6.28;;;10.40;99.90;;;;;;4994778;28;20255;-64
2023/03/22 00:50:01;;;;;;;12.48;6.82;;;10.40;99.90;;;;;;4996523;28;20200;-64
2023/03/22 00:52:27;;;;;;;9.10;6.87;;;10.40;99.90;;;;;;4997106;28;20180;-64
2023/03/22 00:54:53;;;;;;;9.82;6.85;;;10.50;99.90;;;;;;4997459;28;20181;-64
2023/03/22 00:57:19;;;;;;;12.30;7.38;;;10.40;99.90;;;;;;4995654;28;20216;-64
2023/03/22 00:59:45;;;;;;;9.18;6.82;;;10.40;99.90;;;;;;4993606;28;20187;-64
2023/03/22 01:02:13;;;;;;;11.25;6.35;;;10.40;99.90;;;;;;4994475;28;20342;-64
2023/03/22 01:04:45;;;;;;;9.67;7.70;;;10.50;99.90;;;;;;4993387;28;20657;-64
2023/03/22 01:07:16;;;;;;;10.77;7.75;;;10.40;99.90;;;;;;4994726;28;20208;-64
2023/03/22 01:09:45;;;;;;;8.93;6.80;;;10.50;99.90;;;;;;4994878;28;20160;-64
2023/03/22 01:12:11;;;;;;;11.43;7.80;;;10.50;99.90;;;;;;4994513;28;20268;-64
2023/03/22 01:14:37;;;;;;;12.00;8.52;;;10.60;99.90;;;;;;4994728;28;20173;-64
2023/03/22 01:17:03;;;;;;;13.50;7.47;;;10.60;99.90;;;;;;4994166;28;20715;-64
2023/03/22 01:19:29;;;;;;;11.30;7.82;;;10.50;99.90;;;;;;4994438;28;20177;-64
2023/03/22 01:21:56;;;;;;;11.23;7.75;;;10.60;99.90;;;;;;4992870;28;20634;-64
2023/03/22 01:24:22;;;;;;;13.80;7.72;;;10.60;99.90;;;;;;4994546;28;20251;-64
2023/03/22 01:26:48;;;;;;;11.80;8.07;;;10.60;99.90;;;;;;4994081;28;20629;-64
2023/03/22 01:29:14;;;;;;;11.75;8.00;;;10.60;99.90;;;;;;4994383;28;20181;-64
2023/03/22 01:31:40;;;;;;;12.98;7.55;;;10.60;99.90;;;;;;4992810;28;20187;-64
2023/03/22 01:34:06;;;;;;;12.18;7.95;;;10.60;99.90;;;;;;4994109;28;20176;-64
2023/03/22 01:36:32;;;;;;;13.45;8.07;;;10.70;99.90;;;;;;4993951;28;20192;-64
2023/03/22 01:38:58;;;;;;;12.27;8.73;;;10.70;99.90;;;;;;4993959;28;20641;-64
2023/03/22 01:41:24;;;;;;;14.80;8.50;;;10.70;99.90;;;;;;4992700;28;20681;-64
2023/03/22 01:44:08;;;;;;;11.00;8.43;;;10.70;99.90;;;;;;4994533;28;20184;-64
2023/03/22 01:46:34;;;;;;;12.43;8.63;;;10.70;99.90;;;;;;4993760;28;20592;-64
2023/03/22 01:49:02;;;;;;;10.75;8.43;;;10.70;99.90;;;;;;4992686;28;20183;-64
2023/03/22 01:51:28;;;;;;;13.40;8.60;;;10.70;99.90;;;;;;4992728;28;20275;-64
2023/03/22 01:54:07;;;;;;;11.80;8.63;;;10.60;99.90;;;;;;4993907;28;20184;-64
2023/03/22 01:56:36;;;;;;;13.03;8.80;;;10.60;99.90;;;;;;4994159;28;20196;-64
2023/03/22 01:59:03;;;;;;;16.77;8.80;;;10.60;99.90;;;;;;4993768;28;20173;-64
2023/03/22 02:01:29;;;;;;;14.05;9.27;;;10.50;99.90;;;;;;4993878;28;20704;-64
2023/03/22 02:04:12;;;;;;;12.52;8.32;;;10.50;99.90;;;;;;4995316;28;20646;-64
2023/03/22 02:06:38;;;;;;;13.70;8.38;;;10.40;99.90;;;;;;4998003;28;20193;-64
2023/03/22 02:09:08;;;;;;;14.45;9.45;;;10.30;99.90;;;;;;4998130;28;20503;-64
2023/03/22 02:11:40;;;;;;;13.37;9.40;;;10.30;99.90;;;;;;4997650;28;20649;-64
2023/03/22 02:14:35;;;;;;;11.90;9.13;;;10.30;99.90;;;;;;4997593;28;20648;-64
2023/03/22 02:17:04;;;;;;;13.47;9.07;;;10.20;99.90;;;;;;4988104;28;20407;-64
2023/03/22 02:20:09;;;;;;;12.70;9.32;;;10.20;99.90;;;;;;4996379;28;20267;-64
2023/03/22 02:22:51;;;;;;;12.93;9.30;;;10.20;99.90;;;;;;4996451;28;20188;-63
2023/03/22 02:25:46;;;;;;;13.93;8.80;;;10.20;99.90;;;;;;4996302;28;20629;-63
2023/03/22 02:28:42;;;;;;;16.23;9.75;;;10.20;99.90;;;;;;4961562;28;20265;-63
2023/03/22 02:31:26;;;;;;;13.90;8.52;;;10.20;99.90;;;;;;4997416;28;20280;-63
2023/03/22 02:34:26;;;;;;;13.15;9.55;;;10.20;99.90;;;;;;4997442;28;20256;-62
2023/03/22 02:37:31;;;;;;;16.17;9.60;;;10.20;99.90;;;;;;4996198;28;20619;-63
2023/03/22 02:40:31;;;;;;;14.73;9.55;;;10.30;99.90;;;;;;4997448;28;20295;-63
2023/03/22 02:43:13;;;;;;;12.03;9.63;;;10.20;99.90;;;;;;4997099;28;20283;-63
2023/03/22 02:46:04;;;;;;;14.13;9.40;;;10.20;99.90;;;;;;4996989;28;20655;-63
2023/03/22 02:48:57;;;;;;;15.13;9.37;;;10.20;99.90;;;;;;4995512;28;20181;-63
2023/03/22 02:51:41;;;;;;;15.07;9.77;;;10.20;99.90;;;;;;4996922;28;20161;-63
2023/03/22 02:54:28;;;;;;;11.90;9.65;;;10.20;99.90;;;;;;4997530;28;20160;-63
2023/03/22 02:57:09;;;;;;;10.48;8.60;;;10.20;99.90;;;;;;4995529;28;20618;-63
2023/03/22 02:59:38;;;;;;;14.55;9.18;;;10.20;99.90;;;;;;4995609;28;20622;-63
2023/03/22 03:02:07;;;;;;;15.20;9.47;;;10.20;99.90;;;;;;4995165;28;20574;-63
2023/03/22 03:04:40;;;;;;;13.35;8.25;;;10.20;99.90;;;;;;4995408;28;20172;-63
2023/03/22 03:07:10;;;;;;;13.23;9.25;;;10.30;99.90;;;;;;4996555;28;20272;-63
2023/03/22 03:09:39;;;;;;;13.07;8.83;;;10.30;99.90;;;;;;4996820;28;20177;-63
2023/03/22 03:12:12;;;;;;;11.07;9.00;;;10.30;99.90;;;;;;4995193;28;20269;-63
2023/03/22 03:14:38;;;;;;;17.27;9.93;;;10.30;99.90;;;;;;4994919;28;20292;-63
2023/03/22 03:17:40;;;;;;;12.85;9.50;;;10.40;99.90;;;;;;4996059;28;20215;-63
2023/03/22 03:20:29;;;;;;;13.90;9.37;;;10.40;99.90;;;;;;4995231;28;20176;-63
2023/03/22 03:23:03;;;;;;;15.65;8.80;;;10.40;99.90;;;;;;4995149;28;20271;-64
2023/03/22 03:25:56;;;;;;;15.03;9.50;;;10.40;99.90;;;;;;4996299;28;20196;-63
2023/03/22 03:28:51;;;;;;;13.00;9.10;;;10.40;99.90;;;;;;4996446;28;20339;-63
2023/03/22 03:31:35;;;;;;;14.27;9.48;;;10.40;99.90;;;;;;4996708;28;20164;-63
2023/03/22 03:34:12;;;;;;;14.13;9.15;;;10.40;99.90;;;;;;4996338;28;20658;-63
2023/03/22 03:36:43;;;;;;;15.90;9.80;;;10.40;99.90;;;;;;4996060;28;20196;-63
2023/03/22 03:39:13;;;;;;;13.98;9.68;;;10.40;99.90;;;;;;4994926;28;20196;-63
2023/03/22 03:41:41;;;;;;;12.25;8.63;;;10.40;99.90;;;;;;4994754;28;20192;-63
2023/03/22 03:44:07;;;;;;;12.40;9.98;;;10.30;99.90;;;;;;4996272;28;20169;-63
2023/03/22 03:46:33;;;;;;;10.63;9.25;;;10.30;99.90;;;;;;4995818;28;20575;-63
2023/03/22 03:49:01;;;;;;;12.23;8.90;;;10.30;99.90;;;;;;4996356;28;20271;-63
2023/03/22 03:51:27;;;;;;;14.85;9.13;;;10.20;99.90;;;;;;4995973;28;20220;-63
2023/03/22 03:53:53;;;;;;;13.13;10.23;;;10.20;99.90;;;;;;4995804;28;20681;-63
2023/03/22 03:56:19;;;;;;;14.80;9.53;;;10.10;99.90;;;;;;4995777;28;20204;-63
2023/03/22 03:58:44;;;;;;;18.38;10.07;;;10.10;99.90;;;;;;4995991;28;20181;-63
2023/03/22 04:01:10;;;;;;;13.73;9.67;;;10.10;99.90;;;;;;4995643;28;20200;-63
2023/03/22 04:03:36;;;;;;;15.70;9.90;;;10.10;99.90;;;;;;4995551;28;20255;-63
2023/03/22 04:06:02;;;;;;;15.40;9.02;;;10.10;99.90;;;;;;4996141;28;20267;-63
2023/03/22 04:08:28;;;;;;;13.30;9.63;;;10.00;99.90;;;;;;4995459;28;20205;-63
2023/03/22 04:10:54;;;;;;;14.93;9.50;;;10.00;99.90;;;;;;4995849;28;20187;-63
2023/03/22 04:13:20;;;;;;;14.70;10.10;;;10.00;99.90;;;;;;4995978;28;20247;-63
2023/03/22 04:15:47;;;;;;;13.77;9.23;;;10.00;99.90;;;;;;4994109;28;20318;-63
2023/03/22 04:18:12;;;;;;;16.77;9.68;;;10.00;99.90;;;;;;4995131;28;20219;-63
2023/03/22 04:20:40;;;;;;;13.90;9.40;;;9.90;99.90;;;;;;4995233;28;20568;-63
2023/03/22 04:23:09;;;;;;;14.50;9.23;;;9.90;99.90;;;;;;4995251;28;20183;-63
2023/03/22 04:25:36;;;;;;;11.80;9.37;;;9.80;99.90;;;;;;4993258;28;20176;-63
2023/03/22 04:28:03;;;;;;;13.90;9.50;;;9.80;99.90;;;;;;4994960;28;20219;-63
2023/03/22 04:30:34;;;;;;;13.37;9.63;;;9.80;99.90;;;;;;4993908;28;20243;-62
2023/03/22 04:33:07;;;;;;;12.20;9.10;;;9.90;99.90;;;;;;4993852;28;20255;-63
2023/03/22 04:35:33;;;;;;;14.07;9.17;;;9.90;99.90;;;;;;4995064;28;20680;-63
2023/03/22 04:38:00;;;;;;;15.53;8.90;;;9.90;99.90;;;;;;4994849;28;20203;-63
2023/03/22 04:40:27;;;;;;;12.85;8.50;;;9.80;99.90;;;;;;4993629;28;20177;-63
2023/03/22 04:42:56;;;;;;;13.03;9.50;;;9.90;99.90;;;;;;4995123;28;20168;-63
2023/03/22 04:45:22;;;;;;;12.35;7.78;;;9.90;99.90;;;;;;4994765;28;20541;-63
2023/03/22 04:47:48;;;;;;;15.43;9.00;;;9.90;99.90;;;;;;4994689;28;20677;-63
2023/03/22 04:50:14;;;;;;;14.17;8.43;;;9.80;99.90;;;;;;4993575;28;20266;-63
2023/03/22 04:52:40;;;;;;;12.47;8.33;;;9.80;99.90;;;;;;4993367;28;20219;-63
2023/03/22 04:55:06;;;;;;;12.37;9.27;;;9.70;99.90;;;;;;4993665;28;20601;-63
2023/03/22 04:57:33;;;;;;;13.50;9.13;;;9.70;99.90;;;;;;4994627;28;20570;-63
2023/03/22 04:59:59;;;;;;;12.37;9.43;;;9.80;99.90;;;;;;4993316;28;20196;-63
2023/03/22 05:02:25;;;;;;;12.23;8.03;;;9.80;99.90;;;;;;4994365;28;20672;-63
2023/03/22 05:04:51;;;;;;;15.60;8.95;;;9.70;99.90;;;;;;4993213;28;20181;-63
2023/03/22 05:07:17;;;;;;;11.63;8.77;;;9.70;99.90;;;;;;4994367;28;20247;-63
2023/03/22 05:09:42;;;;;;;12.38;8.73;;;9.70;99.90;;;;;;4993135;28;20181;-63
2023/03/22 05:12:08;;;;;;;14.70;9.27;;;9.70;99.90;;;;;;4994666;28;20196;-63
2023/03/22 05:14:34;;;;;;;12.33;9.13;;;9.70;99.90;;;;;;4994679;28;20172;-63
2023/03/22 05:17:00;;;;;;;13.93;9.93;;;9.70;99.90;;;;;;4994001;28;20661;-63
2023/03/22 05:19:26;;;;;;;14.37;8.97;;;9.70;99.90;;;;;;4992949;28;20227;-63
2023/03/22 05:21:56;;;;;;;12.50;8.60;;;9.70;99.90;;;;;;4994120;28;20196;-63
2023/03/22 05:24:22;;;;;;;13.80;9.10;;;9.70;99.90;;;;;;4992923;28;20276;-63
2023/03/22 05:26:52;;;;;;;13.87;9.57;;;9.70;99.90;;;;;;4994986;28;20267;-63
2023/03/22 05:29:18;;;;;;;12.13;9.07;;;9.60;99.90;;;;;;4994440;28;20256;-63
2023/03/22 05:31:44;;;;;;;11.87;9.50;;;9.60;99.90;;;;;;4994550;28;20184;-63
2023/03/22 05:34:10;;;;;;;13.53;8.70;;;9.60;99.90;;;;;;4992845;28;20224;-63
2023/03/22 05:36:36;;;;;;;13.87;10.13;;;9.60;99.90;;;;;;4993843;28;20254;-63
2023/03/22 05:39:03;;;;;;;13.33;9.90;;;9.60;99.90;;;;;;4994069;28;20176;-63
2023/03/22 05:41:30;;;;;;;13.00;9.45;;;9.70;99.90;;;;;;4993905;28;20203;-63
2023/03/22 05:43:56;;;;;;;10.77;8.63;;;9.70;99.90;;;;;;4993994;28;20165;-64
2023/03/22 05:46:22;;;;;;;12.77;8.90;;;9.70;99.90;;;;;;4993871;28;20204;-64
2023/03/22 05:48:48;;;;;;;14.43;9.67;;;9.70;99.90;;;;;;4993981;28;20631;-64
2023/03/22 05:51:18;;;;;;;13.77;8.77;;;9.70;99.90;;;;;;4994766;28;20525;-64
2023/03/22 05:53:47;;;;;;;15.43;9.97;;;9.70;99.90;;;;;;4994390;28;20180;-64
2023/03/22 05:56:14;;;;;;;12.27;8.90;;;9.80;99.90;;;;;;4994105;28;20230;-65
2023/03/22 05:58:41;;;;;;;11.37;8.57;;;9.80;99.90;;;;;;4994006;28;20181;-64
2023/03/22 06:01:10;;;;;;;13.13;9.63;;;9.80;99.90;;;;;;4993913;28;20192;-64
2023/03/22 06:03:37;;;;;;;13.90;9.23;;;9.90;99.90;;;;;;4992603;28;20663;-65
2023/03/22 06:06:05;;;;;;;14.07;8.80;;;9.90;99.90;;;;;;4994662;28;20160;-64
2023/03/22 06:08:32;;;;;;;16.00;9.27;;;10.00;99.90;;;;;;4994037;28;20161;-64
2023/03/22 06:10:59;;;;;;;11.37;9.03;;;10.00;99.90;;;;;;4992770;28;20185;-64
2023/03/22 06:13:25;;;;;;;15.33;9.80;;;10.00;99.90;;;;;;4992489;28;20264;-64
2023/03/22 06:15:50;;;;;;;15.07;8.83;;;10.10;99.90;;;;;;4994305;28;20614;-68
2023/03/22 06:18:16;;;;;;;13.23;8.75;;;10.10;99.90;;;;;;4993752;28;20299;-68
2023/03/22 06:20:42;;;;;;;11.93;8.75;;;10.20;99.90;;;;;;4993929;28;20627;-68
2023/03/22 06:23:08;;;;;;;13.77;9.18;;;10.20;99.90;;;;;;4994265;28;20211;-66
2023/03/22 06:25:34;;;;;;;14.10;7.87;;;10.20;99.90;;;;;;4994323;28;20188;-66
2023/03/22 06:28:00;;;;;;;10.67;8.43;;;10.30;99.90;;;;;;4992573;28;20291;-66
2023/03/22 06:30:26;;;;;;;13.52;8.35;;;10.30;99.90;;;;;;4994223;28;20189;-66
2023/03/22 06:32:53;;;;;;;14.10;8.70;;;10.30;99.90;;;;;;4992512;28;20769;-66
2023/03/22 06:35:19;;;;;;;14.93;8.63;;;10.30;99.90;;;;;;4994045;28;20185;-66
2023/03/22 06:37:45;;;;;;;12.60;8.30;;;10.30;99.90;;;;;;4993657;28;20193;-66
2023/03/22 06:40:11;;;;;;;11.53;7.97;;;10.30;99.90;;;;;;4995228;28;20172;-66
2023/03/22 06:42:37;;;;;;;13.23;7.70;;;10.30;99.90;;;;;;4994284;28;20204;-68
2023/03/22 06:45:03;;;;;;;12.80;7.70;;;10.30;99.90;;;;;;4995513;28;20172;-68
2023/03/22 06:47:29;;;;;;;12.27;7.57;;;10.40;99.90;;;;;;4993199;28;20708;-68
2023/03/22 06:49:55;;;;;;;13.02;7.28;;;10.40;99.90;;;;;;4997107;28;20172;-68
2023/03/22 06:52:21;;;;;;;11.40;7.72;;;10.50;99.90;;;;;;4996412;28;20184;-68
2023/03/22 06:54:46;;;;;;;10.13;7.17;;;10.50;99.90;;;;;;4996058;28;20528;-68
2023/03/22 06:57:12;;;;;;;10.52;7.25;;;10.50;99.90;;;;;;4995924;28;20208;-68
2023/03/22 06:59:38;;;;;;;10.20;7.07;;;10.50;99.90;;;;;;4997116;28;20594;-68
2023/03/22 07:02:04;;;;;;;10.98;6.90;;;10.60;99.90;;;;;;4997162;28;20193;-68
2023/03/22 07:04:30;;;;;;;9.20;6.88;;;10.60;99.90;;;;;;4995719;28;20180;-68
2023/03/22 07:06:56;;;;;;;13.05;6.95;;;10.70;99.90;;;;;;4996754;28;20196;-68
2023/03/22 07:09:23;;;;;;;12.65;7.00;;;10.70;99.90;;;;;;4997364;28;20227;-68
2023/03/22 07:11:49;;;;;;;10.02;7.20;;;10.80;99.90;;;;;;4996303;28;20323;-64
2023/03/22 07:14:16;;;;;;;10.77;6.40;;;10.70;99.90;;;;;;4997425;28;20207;-65
2023/03/22 07:16:42;;;;;;;10.82;6.65;;;10.80;99.90;;;;;;4997423;28;20189;-63
2023/03/22 07:19:08;;;;;;;8.32;6.63;;;10.80;99.90;;;;;;4997280;28;20676;-64
2023/03/22 07:21:34;;;;;;;13.73;6.40;;;10.90;99.90;;;;;;4996388;28;20696;-68
2023/03/22 07:24:00;;;;;;;8.88;6.13;;;10.90;99.90;;;;;;5019096;28;20186;-68
2023/03/22 07:26:26;;;;;;;7.28;6.00;;;10.90;99.90;;;;;;5015042;28;20287;-68
2023/03/22 07:28:52;;;;;;;10.35;6.72;;;10.90;99.90;;;;;;5016265;28;20584;-68
2023/03/22 07:31:18;;;;;;;11.73;6.75;;;11.00;99.90;;;;;;5014794;28;20332;-68
2023/03/22 07:33:44;;;;;;;12.15;6.60;;;11.00;99.90;;;;;;5015868;28;20215;-68
2023/03/22 07:36:10;;;;;;;10.75;6.07;;;11.00;99.90;;;;;;5015722;28;20180;-69
2023/03/22 07:38:36;;;;;;;7.47;5.70;;;11.10;99.90;;;;;;5014687;28;20180;-68
2023/03/22 07:41:03;;;;;;;8.82;5.80;;;11.00;99.90;;;;;;5015786;28;20222;-69
2023/03/22 07:43:29;;;;;;;8.27;5.93;;;11.00;99.90;;;;;;5014517;28;20176;-68
2023/03/22 07:45:54;;;;;;;8.10;6.03;;;11.10;99.90;;;;;;5015814;28;20179;-68
2023/03/22 07:48:21;;;;;;;10.57;6.55;;;11.00;99.90;;;;;;5014405;28;20195;-69
2023/03/22 07:50:47;;;;;;;9.50;6.25;;;11.00;99.90;;;;;;5015693;28;20180;-68
2023/03/22 07:53:13;;;;;;;10.15;6.53;;;11.00;99.90;;;;;;5002596;28;20228;-68
2023/03/22 07:55:41;;;;;;;10.38;6.60;;;11.00;99.90;;;;;;4995942;28;20177;-68
2023/03/22 07:58:07;;;;;;;10.52;5.72;;;11.10;99.90;;;;;;4996398;28;20647;-69
2023/03/22 08:00:33;;;;;;;9.77;6.00;;;11.20;99.90;;;;;;4995125;28;20172;-69
2023/03/22 08:03:00;;;;;;;7.93;5.70;;;11.40;99.90;;;;;;4994454;28;20176;-69
2023/03/22 08:05:26;;;;;;;8.43;5.68;;;11.70;99.90;;;;;;4995743;28;20173;-69
2023/03/22 08:07:53;;;;;;;10.13;6.50;;;11.90;99.90;;;;;;4994313;28;20696;-68
2023/03/22 08:10:19;;;;;;;8.20;5.88;;;12.00;99.90;;;;;;4995595;28;20663;-69
2023/03/22 08:12:45;;;;;;;9.20;5.88;;;12.00;99.90;;;;;;4995669;28;20637;-69
2023/03/22 08:15:11;;;;;;;9.23;5.82;;;12.20;99.90;;;;;;4995810;28;20203;-69
2023/03/22 08:17:37;;;;;;;8.25;5.10;;;12.30;99.90;;;;;;4995276;28;20580;-69
2023/03/22 08:20:07;;;;;;;8.70;5.38;;;12.50;99.90;;;;;;4995531;28;20180;-69
2023/03/22 08:22:35;;;;;;;7.57;5.57;;;12.50;99.90;;;;;;4995970;28;20677;-68
2023/03/22 08:25:02;;;;;;;14.63;6.25;;;12.40;99.90;;;;;;4995683;28;20176;-68
2023/03/22 08:27:27;;;;;;;10.75;5.80;;;12.30;99.90;;;;;;4995434;28;20192;-68
2023/03/22 08:29:53;;;;;;;8.50;5.13;;;12.40;99.90;;;;;;4994260;28;20596;-68
2023/03/22 08:32:19;;;;;;;8.63;5.65;;;12.40;99.90;;;;;;4995747;28;20176;-68
2023/03/22 08:34:45;;;;;;;8.63;5.60;;;12.40;99.90;;;;;;4995256;28;20228;-68
2023/03/22 08:37:11;;;;;;;11.25;5.45;;;12.30;99.90;;;;;;4995773;28;20232;-68
2023/03/22 08:39:38;;;;;;;7.60;5.15;;;12.20;99.90;;;;;;4995312;28;20189;-68
2023/03/22 08:42:04;;;;;;;11.55;5.07;;;12.10;99.90;;;;;;4993792;28;20208;-68
2023/03/22 08:44:30;;;;;;;9.90;5.75;;;12.20;99.90;;;;;;4995321;28;20199;-68
2023/03/22 08:46:56;;;;;;;10.85;5.65;;;12.30;99.90;;;;;;4994838;28;20213;-68
2023/03/22 08:49:22;;;;;;;8.52;5.05;;;12.30;99.90;;;;;;4993540;28;20184;-68
2023/03/22 08:51:48;;;;;;;12.25;5.15;;;12.40;99.90;;;;;;4993654;28;20180;-68
2023/03/22 08:54:14;;;;;;;8.30;4.93;;;12.50;99.90;;;;;;4993577;28;20180;-68
2023/03/22 08:56:40;;;;;;;8.27;4.70;;;12.60;99.90;;;;;;4995066;28;20624;-68
2023/03/22 08:59:08;;;;;;;7.63;4.55;;;12.60;99.90;;;;;;4994828;28;20247;-68
2023/03/22 09:01:35;;;;;;;10.00;5.22;;;12.70;99.90;;;;;;4993361;28;20672;-68
2023/03/22 09:04:02;;;;;;;8.05;4.53;;;12.70;99.90;;;;;;4993380;28;20243;-68
2023/03/22 09:06:28;;;;;;;6.97;4.82;;;12.70;99.90;;;;;;4993406;28;20193;-68
2023/03/22 09:08:55;;;;;;;7.47;5.13;;;12.50;99.90;;;;;;4993211;28;20642;-68
2023/03/22 09:11:22;;;;;;;8.07;4.22;;;12.50;99.90;;;;;;4994196;28;20531;-68
2023/03/22 09:13:49;;;;;;;8.13;4.93;;;12.50;99.90;;;;;;4993545;28;20212;-68
2023/03/22 09:16:15;;;;;;;11.00;5.03;;;12.60;99.90;;;;;;4993225;28;20267;-68
2023/03/22 09:18:41;;;;;;;7.43;4.90;;;12.60;99.90;;;;;;4993083;28;20570;-68
2023/03/22 09:21:08;;;;;;;7.32;4.40;;;12.60;99.90;;;;;;4994240;28;20347;-68
2023/03/22 09:23:36;;;;;;;5.45;4.45;;;12.60;99.90;;;;;;4993171;28;20191;-68
2023/03/22 09:26:05;;;;;;;7.38;4.15;;;12.70;99.90;;;;;;4993091;28;20243;-68
2023/03/22 09:28:31;;;;;;;12.00;5.18;;;12.70;99.90;;;;;;4994350;28;20196;-69
2023/03/22 09:31:06;;;;;;;8.95;4.18;;;12.70;99.90;;;;;;4994429;28;20191;-67
2023/03/22 09:33:32;;;;;;;9.80;4.53;;;13.00;99.90;;;;;;4992889;28;20168;-66
2023/03/22 09:35:58;;;;;;;9.80;5.15;;;13.10;99.90;;;;;;4994217;28;20172;-66
2023/03/22 09:38:24;;;;;;;9.00;4.35;;;13.20;99.90;;;;;;4992922;28;20710;-66
2023/03/22 09:41:06;;;;;;;8.85;4.47;;;13.20;99.90;;;;;;4994050;28;20627;-66
2023/03/22 09:43:36;;;;;;;8.48;4.25;;;13.20;99.90;;;;;;4994411;28;20166;-66
2023/03/22 09:46:05;;;;;;;9.13;3.97;;;13.30;99.90;;;;;;4992829;28;20268;-66
2023/03/22 09:48:36;;;;;;;6.53;3.55;;;13.60;99.90;;;;;;4993815;28;20279;-66
2023/03/22 09:51:04;;;;;;;3.78;3.28;;;13.70;99.90;;;;;;4992836;28;20215;-66
2023/03/22 09:53:31;;;;;;;6.28;3.40;;;13.70;99.90;;;;;;4994062;28;20196;-66
2023/03/22 09:56:12;;;;;;;5.13;3.65;;;13.70;99.90;;;;;;4992984;28;20645;-66
2023/03/22 09:58:49;;;;;;;5.88;3.38;;;13.70;99.90;;;;;;4992774;28;20208;-66
2023/03/22 10:01:17;;;;;;;7.15;3.58;;;13.70;99.90;;;;;;4992690;28;20214;-66
2023/03/22 10:04:04;;;;;;;5.57;3.80;;;13.80;99.90;;;;;;4993879;28;20175;-67
2023/03/22 10:06:31;;;;;;;6.32;3.60;;;13.80;99.90;;;;;;4992695;28;20279;-66
2023/03/22 10:09:05;;;;;;;7.85;3.88;;;13.80;99.90;;;;;;4992670;28;20268;-66
2023/03/22 10:11:45;;;;;;;3.65;3.33;;;13.80;99.90;;;;;;4993942;28;20177;-66
2023/03/22 10:14:36;;;;;;;4.30;3.40;;;13.90;99.90;;;;;;4993893;28;20219;-66
2023/03/22 10:17:08;;;;;;;7.70;4.07;;;13.90;99.90;;;;;;4993802;28;20302;-66
2023/03/22 10:19:54;;;;;;;8.10;4.00;;;13.90;99.90;;;;;;4994196;28;20215;-66
2023/03/22 10:22:28;;;;;;;7.45;3.63;;;13.70;99.90;;;;;;4993725;28;20218;-66
2023/03/22 10:24:55;;;;;;;5.40;3.78;;;13.70;99.90;;;;;;4996466;28;20157;-65
2023/03/22 10:27:23;;;;;;;5.28;3.70;;;13.60;99.90;;;;;;4996219;28;20614;-66
2023/03/22 10:29:55;;;;;;;6.15;3.97;;;13.50;99.90;;;;;;4997465;28;20176;-66
2023/03/22 10:32:39;;;;;;;8.25;3.78;;;13.50;99.90;;;;;;4997306;28;20244;-66
2023/03/22 10:35:05;;;;;;;3.85;3.50;;;13.50;99.90;;;;;;4996209;28;20633;-66
2023/03/22 10:37:34;;;;;;;7.10;3.60;;;13.50;99.90;;;;;;4995983;28;20294;-66
2023/03/22 10:40:06;;;;;;;8.65;3.92;;;13.50;99.90;;;;;;4996072;28;20220;-66
2023/03/22 10:42:35;;;;;;;6.30;3.45;;;13.50;99.90;;;;;;4997502;28;20199;-66
2023/03/22 10:45:08;;;;;;;4.32;3.25;;;13.60;99.90;;;;;;4997321;28;20173;-68
2023/03/22 10:47:58;;;;;;;3.67;3.20;;;13.60;99.90;;;;;;4995796;28;20200;-67
2023/03/22 10:50:35;;;;;;;4.55;3.08;;;13.50;99.90;;;;;;4996031;28;20263;-64
2023/03/22 10:53:26;;;;;;;4.28;3.15;;;13.50;99.90;;;;;;4997053;28;20731;-63
2023/03/22 10:55:52;;;;;;;5.85;3.08;;;13.60;99.90;;;;;;4996990;28;20180;-64
2023/03/22 10:58:27;;;;;;;4.90;3.13;;;13.60;99.90;;;;;;4996826;28;20192;-64
2023/03/22 11:00:56;;;;;;;3.17;2.85;;;13.80;99.90;;;;;;4996817;28;20246;-64
2023/03/22 11:03:30;;;;;;;2.95;2.72;;;14.00;99.90;;;;;;4996644;28;20482;-63
2023/03/22 11:06:10;;;;;;;4.35;2.88;;;13.90;99.90;;;;;;4997128;28;20164;-63
2023/03/22 11:08:51;;;;;;;6.30;2.70;;;13.90;99.90;;;;;;4996699;28;20168;-63
2023/03/22 11:11:45;;;;;;;4.50;2.95;;;14.00;99.90;;;;;;4995484;28;20658;-63
2023/03/22 11:14:22;;;;;;;3.53;2.90;;;14.00;99.90;;;;;;4996605;28;20165;-63
2023/03/22 11:17:05;;;;;;;3.20;3.00;;;14.00;99.90;;;;;;4996489;28;20231;-65
2023/03/22 11:19:48;;;;;;;3.45;2.72;;;13.80;99.90;;;;;;4995241;28;20195;-64
2023/03/22 11:22:35;;;;;;;5.75;3.00;;;13.80;99.90;;;;;;4996559;28;20196;-63
2023/03/22 11:25:05;;;;;;;5.00;3.00;;;13.70;99.90;;;;;;4995191;28;20216;-63
2023/03/22 11:27:32;;;;;;;4.60;2.90;;;13.80;99.90;;;;;;4996292;28;20192;-63
2023/03/22 11:30:19;;;;;;;3.70;3.15;;;13.80;99.90;;;;;;4996595;28;20175;-63
2023/03/22 11:32:45;;;;;;;4.25;2.97;;;14.00;99.90;;;;;;4996168;28;20222;-63
2023/03/22 11:35:15;;;;;;;4.15;3.00;;;14.10;99.90;;;;;;4996305;28;20271;-63
2023/03/22 11:37:46;;;;;;;4.43;3.55;;;14.30;99.90;;;;;;4996250;28;20741;-63
2023/03/22 11:40:21;;;;;;;6.15;3.10;;;14.40;99.90;;;;;;4996589;28;20176;-63
2023/03/22 11:42:52;;;;;;;3.88;2.70;;;14.50;99.90;;;;;;4996264;28;20192;-64
2023/03/22 11:45:35;;;;;;;3.28;2.60;;;14.80;99.90;;;;;;4996250;28;20161;-63
2023/03/22 11:48:14;;;;;;;4.97;2.97;;;14.80;99.90;;;;;;4996036;28;20203;-63
2023/03/22 11:50:43;;;;;;;5.85;2.88;;;14.70;99.90;;;;;;4996559;28;20169;-64
2023/03/22 11:53:16;;;;;;;4.63;2.92;;;14.60;99.90;;;;;;4994987;28;20184;-63
2023/03/22 11:55:44;;;;;;;2.95;2.65;;;14.60;99.90;;;;;;4996617;28;20165;-63
2023/03/22 11:58:36;;;;;;;6.00;3.30;;;14.50;99.90;;;;;;4995855;28;20743;-63
2023/03/22 12:01:03;;;;;;;3.53;3.00;;;14.30;99.90;;;;;;4980356;28;20217;-64
2023/03/22 12:03:34;;;;;;;4.78;2.83;;;14.20;99.90;;;;;;4994585;28;20664;-63
2023/03/22 12:06:10;;;;;;;3.50;3.20;;;14.10;99.90;;;;;;4996385;28;20161;-64
2023/03/22 12:08:57;;;;;;;3.83;3.10;;;14.00;99.90;;;;;;4995585;28;20167;-63
2023/03/22 12:11:47;;;;;;;3.40;2.80;;;14.00;99.90;;;;;;4997217;28;20169;-63
2023/03/22 12:14:29;;;;;;;4.45;2.85;;;14.00;99.90;;;;;;4995085;28;20523;-63
2023/03/22 12:17:35;;;;;;;5.68;2.80;;;14.00;99.90;;;;;;4994534;28;20262;-64
2023/03/22 12:20:22;;;;;;;4.30;2.50;;;14.00;99.90;;;;;;4990161;28;20200;-63
2023/03/22 12:22:52;;;;;;;3.30;2.92;;;13.90;99.90;;;;;;4994289;28;20219;-63
2023/03/22 12:25:34;;;;;;;5.05;2.78;;;13.80;99.90;;;;;;4994317;28;20556;-63
2023/03/22 12:28:08;;;;;;;4.90;2.80;;;13.70;99.90;;;;;;4994029;28;20192;-63
2023/03/22 12:30:41;;;;;;;4.78;2.80;;;13.60;99.90;;;;;;4994120;28;20176;-63
2023/03/22 12:33:15;;;;;;;3.95;2.63;;;13.50;99.90;;;;;;4995153;28;20160;-63
2023/03/22 12:35:44;;;;;;;4.20;2.97;;;13.50;99.90;;;;;;4995639;28;20172;-63
2023/03/22 12:38:39;;;;;;;4.65;2.92;;;13.50;99.90;;;;;;4994174;28;20204;-63
2023/03/22 12:41:10;;;;;;;6.82;3.47;;;13.50;99.90;;;;;;4987473;28;20216;-63
2023/03/22 12:43:54;;;;;;;7.07;2.85;;;13.60;99.90;;;;;;4995551;28;20161;-63
2023/03/22 12:46:36;;;;;;;4.30;3.22;;;13.50;99.90;;;;;;4995159;28;20165;-64
2023/03/22 12:49:15;;;;;;;5.43;2.83;;;13.60;99.90;;;;;;4994857;28;20586;-64
2023/03/22 12:51:42;;;;;;;3.25;2.65;;;13.50;99.90;;;;;;4995201;28;20168;-64
2023/03/22 12:54:12;;;;;;;2.78;2.47;;;13.50;99.90;;;;;;4995436;28;20180;-63
2023/03/22 12:56:42;;;;;;;3.90;2.72;;;13.40;99.90;;;;;;4994738;28;20206;-63
2023/03/22 12:59:16;;;;;;;2.92;2.60;;;13.40;99.90;;;;;;4994785;28;20263;-63
2023/03/22 13:02:00;;;;;;;4.28;2.92;;;13.40;99.90;;;;;;4994913;28;20192;-63